sensor_id;sensor_type;location;lat;lon;timestamp;temperature;humidity
11597;DHT22;5854;48.072;16.286;2023-03-19T00:00:11;7.60;44.30
11597;DHT22;5854;48.072;16.286;2023-03-19T00:02:39;7.70;43.30
11597;DHT22;5854;48.072;16.286;2023-03-19T00:05:08;7.50;44.30
11597;DHT22;5854;48.072;16.286;2023-03-19T00:07:35;7.70;45.60
11597;DHT22;5854;48.072;16.286;2023-03-19T00:10:02;7.50;43.90
11597;DHT22;5854;48.072;16.286;2023-03-19T00:12:30;7.30;44.90
11597;DHT22;5854;48.072;16.286;2023-03-19T00:14:57;7.50;44.60
11597;DHT22;5854;48.072;16.286;2023-03-19T00:17:24;7.40;45.20
11597;DHT22;5854;48.072;16.286;2023-03-19T00:19:51;7.40;43.10
11597;DHT22;5854;48.072;16.286;2023-03-19T00:22:19;7.40;43.20
11597;DHT22;5854;48.072;16.286;2023-03-19T00:24:46;7.40;42.50
11597;DHT22;5854;48.072;16.286;2023-03-19T00:27:13;7.40;42.00
11597;DHT22;5854;48.072;16.286;2023-03-19T00:29:41;7.20;44.00
11597;DHT22;5854;48.072;16.286;2023-03-19T00:32:08;7.40;44.60
11597;DHT22;5854;48.072;16.286;2023-03-19T00:34:35;7.40;42.70
11597;DHT22;5854;48.072;16.286;2023-03-19T00:37:02;7.20;44.50
11597;DHT22;5854;48.072;16.286;2023-03-19T00:39:31;7.10;44.90
11597;DHT22;5854;48.072;16.286;2023-03-19T00:41:58;7.20;45.20
11597;DHT22;5854;48.072;16.286;2023-03-19T00:44:25;7.20;45.20
11597;DHT22;5854;48.072;16.286;2023-03-19T00:46:53;7.30;45.20
11597;DHT22;5854;48.072;16.286;2023-03-19T00:49:20;7.30;45.00
11597;DHT22;5854;48.072;16.286;2023-03-19T00:51:47;7.10;44.90
11597;DHT22;5854;48.072;16.286;2023-03-19T00:54:14;7.10;44.10
11597;DHT22;5854;48.072;16.286;2023-03-19T00:56:42;7.00;42.40
11597;DHT22;5854;48.072;16.286;2023-03-19T00:59:09;7.00;44.70
11597;DHT22;5854;48.072;16.286;2023-03-19T01:01:36;7.10;45.00
11597;DHT22;5854;48.072;16.286;2023-03-19T01:04:04;7.10;43.70
11597;DHT22;5854;48.072;16.286;2023-03-19T01:06:31;7.00;45.30
11597;DHT22;5854;48.072;16.286;2023-03-19T01:08:58;7.10;44.40
11597;DHT22;5854;48.072;16.286;2023-03-19T01:11:25;6.90;44.30
11597;DHT22;5854;48.072;16.286;2023-03-19T01:13:53;6.90;43.10
11597;DHT22;5854;48.072;16.286;2023-03-19T01:16:20;6.50;45.40
11597;DHT22;5854;48.072;16.286;2023-03-19T01:18:47;6.80;45.00
11597;DHT22;5854;48.072;16.286;2023-03-19T01:21:14;6.80;45.50
11597;DHT22;5854;48.072;16.286;2023-03-19T01:23:41;6.80;43.30
11597;DHT22;5854;48.072;16.286;2023-03-19T01:26:08;6.70;45.00
11597;DHT22;5854;48.072;16.286;2023-03-19T01:28:36;6.40;45.40
11597;DHT22;5854;48.072;16.286;2023-03-19T01:31:07;6.50;43.90
11597;DHT22;5854;48.072;16.286;2023-03-19T01:33:34;6.10;43.90
11597;DHT22;5854;48.072;16.286;2023-03-19T01:36:03;6.40;46.60
11597;DHT22;5854;48.072;16.286;2023-03-19T01:38:31;6.50;43.90
11597;DHT22;5854;48.072;16.286;2023-03-19T01:40:58;6.40;44.50
11597;DHT22;5854;48.072;16.286;2023-03-19T01:43:26;6.30;43.10
11597;DHT22;5854;48.072;16.286;2023-03-19T01:45:59;6.30;47.20
11597;DHT22;5854;48.072;16.286;2023-03-19T01:48:37;6.50;44.00
11597;DHT22;5854;48.072;16.286;2023-03-19T01:51:06;6.30;46.50
11597;DHT22;5854;48.072;16.286;2023-03-19T01:53:35;6.60;45.20
11597;DHT22;5854;48.072;16.286;2023-03-19T01:56:08;6.30;43.70
11597;DHT22;5854;48.072;16.286;2023-03-19T01:58:39;6.10;45.70
11597;DHT22;5854;48.072;16.286;2023-03-19T02:01:07;6.40;46.10
11597;DHT22;5854;48.072;16.286;2023-03-19T02:03:37;6.60;46.40
11597;DHT22;5854;48.072;16.286;2023-03-19T02:06:05;6.30;44.10
11597;DHT22;5854;48.072;16.286;2023-03-19T02:08:34;6.40;46.40
11597;DHT22;5854;48.072;16.286;2023-03-19T02:11:01;6.40;46.00
11597;DHT22;5854;48.072;16.286;2023-03-19T02:13:29;6.50;46.20
11597;DHT22;5854;48.072;16.286;2023-03-19T02:15:56;6.60;44.40
11597;DHT22;5854;48.072;16.286;2023-03-19T02:18:24;6.30;46.00
11597;DHT22;5854;48.072;16.286;2023-03-19T02:20:57;6.40;46.30
11597;DHT22;5854;48.072;16.286;2023-03-19T02:23:33;6.40;44.60
11597;DHT22;5854;48.072;16.286;2023-03-19T02:26:06;6.00;46.30
11597;DHT22;5854;48.072;16.286;2023-03-19T02:28:36;6.20;46.50
11597;DHT22;5854;48.072;16.286;2023-03-19T02:31:05;6.20;46.10
11597;DHT22;5854;48.072;16.286;2023-03-19T02:33:32;6.20;44.50
11597;DHT22;5854;48.072;16.286;2023-03-19T02:36:01;6.20;44.50
11597;DHT22;5854;48.072;16.286;2023-03-19T02:38:32;6.20;44.40
11597;DHT22;5854;48.072;16.286;2023-03-19T02:41:01;6.00;44.40
11597;DHT22;5854;48.072;16.286;2023-03-19T02:43:32;6.10;45.50
11597;DHT22;5854;48.072;16.286;2023-03-19T02:46:00;6.00;46.90
11597;DHT22;5854;48.072;16.286;2023-03-19T02:48:28;6.10;46.40
11597;DHT22;5854;48.072;16.286;2023-03-19T02:50:55;5.80;44.70
11597;DHT22;5854;48.072;16.286;2023-03-19T02:53:22;5.90;47.30
11597;DHT22;5854;48.072;16.286;2023-03-19T02:55:50;6.20;47.00
11597;DHT22;5854;48.072;16.286;2023-03-19T02:58:17;6.30;46.50
11597;DHT22;5854;48.072;16.286;2023-03-19T03:00:45;6.20;46.10
11597;DHT22;5854;48.072;16.286;2023-03-19T03:03:12;6.10;44.40
11597;DHT22;5854;48.072;16.286;2023-03-19T03:05:39;6.10;46.10
11597;DHT22;5854;48.072;16.286;2023-03-19T03:08:07;6.20;45.90
11597;DHT22;5854;48.072;16.286;2023-03-19T03:10:34;6.20;46.50
11597;DHT22;5854;48.072;16.286;2023-03-19T03:13:02;6.20;45.90
11597;DHT22;5854;48.072;16.286;2023-03-19T03:15:30;6.20;44.80
11597;DHT22;5854;48.072;16.286;2023-03-19T03:17:58;6.00;45.00
11597;DHT22;5854;48.072;16.286;2023-03-19T03:20:26;6.00;46.90
11597;DHT22;5854;48.072;16.286;2023-03-19T03:22:53;6.00;46.20
11597;DHT22;5854;48.072;16.286;2023-03-19T03:25:20;6.00;46.70
11597;DHT22;5854;48.072;16.286;2023-03-19T03:27:47;5.80;45.10
11597;DHT22;5854;48.072;16.286;2023-03-19T03:30:14;5.70;45.70
11597;DHT22;5854;48.072;16.286;2023-03-19T03:32:42;5.70;46.70
11597;DHT22;5854;48.072;16.286;2023-03-19T03:35:10;5.60;47.10
11597;DHT22;5854;48.072;16.286;2023-03-19T03:37:38;5.60;45.90
11597;DHT22;5854;48.072;16.286;2023-03-19T03:40:06;5.30;46.40
11597;DHT22;5854;48.072;16.286;2023-03-19T03:42:35;5.50;48.00
11597;DHT22;5854;48.072;16.286;2023-03-19T03:45:03;5.70;47.50
11597;DHT22;5854;48.072;16.286;2023-03-19T03:47:30;5.80;46.40
11597;DHT22;5854;48.072;16.286;2023-03-19T03:49:57;5.80;46.50
11597;DHT22;5854;48.072;16.286;2023-03-19T03:52:26;5.80;46.90
11597;DHT22;5854;48.072;16.286;2023-03-19T03:54:56;5.50;46.10
11597;DHT22;5854;48.072;16.286;2023-03-19T03:57:23;5.60;47.40
11597;DHT22;5854;48.072;16.286;2023-03-19T03:59:51;5.70;46.90
11597;DHT22;5854;48.072;16.286;2023-03-19T04:02:18;5.80;46.80
11597;DHT22;5854;48.072;16.286;2023-03-19T04:04:46;5.70;46.50
11597;DHT22;5854;48.072;16.286;2023-03-19T04:07:13;5.80;47.00
11597;DHT22;5854;48.072;16.286;2023-03-19T04:09:41;5.80;46.80
11597;DHT22;5854;48.072;16.286;2023-03-19T04:12:09;5.70;46.40
11597;DHT22;5854;48.072;16.286;2023-03-19T04:14:37;5.80;46.70
11597;DHT22;5854;48.072;16.286;2023-03-19T04:17:04;5.60;46.60
11597;DHT22;5854;48.072;16.286;2023-03-19T04:19:31;5.40;46.20
11597;DHT22;5854;48.072;16.286;2023-03-19T04:21:58;5.50;47.00
11597;DHT22;5854;48.072;16.286;2023-03-19T04:24:28;5.50;47.30
11597;DHT22;5854;48.072;16.286;2023-03-19T04:26:56;5.30;46.30
11597;DHT22;5854;48.072;16.286;2023-03-19T04:29:23;5.20;46.70
11597;DHT22;5854;48.072;16.286;2023-03-19T04:31:52;5.20;47.30
11597;DHT22;5854;48.072;16.286;2023-03-19T04:34:19;5.30;47.40
11597;DHT22;5854;48.072;16.286;2023-03-19T04:36:46;5.40;47.60
11597;DHT22;5854;48.072;16.286;2023-03-19T04:39:14;5.50;47.30
11597;DHT22;5854;48.072;16.286;2023-03-19T04:41:41;5.40;46.60
11597;DHT22;5854;48.072;16.286;2023-03-19T04:44:11;5.50;47.30
11597;DHT22;5854;48.072;16.286;2023-03-19T04:46:38;5.40;46.30
11597;DHT22;5854;48.072;16.286;2023-03-19T04:49:05;5.40;47.20
11597;DHT22;5854;48.072;16.286;2023-03-19T04:51:32;5.30;46.40
11597;DHT22;5854;48.072;16.286;2023-03-19T04:53:59;5.20;47.10
11597;DHT22;5854;48.072;16.286;2023-03-19T04:56:26;5.10;47.90
11597;DHT22;5854;48.072;16.286;2023-03-19T04:58:53;5.20;47.60
11597;DHT22;5854;48.072;16.286;2023-03-19T05:01:22;5.30;47.60
11597;DHT22;5854;48.072;16.286;2023-03-19T05:03:50;5.40;47.20
11597;DHT22;5854;48.072;16.286;2023-03-19T05:06:17;5.40;46.70
11597;DHT22;5854;48.072;16.286;2023-03-19T05:08:46;5.20;46.90
11597;DHT22;5854;48.072;16.286;2023-03-19T05:11:13;5.30;46.90
11597;DHT22;5854;48.072;16.286;2023-03-19T05:13:41;5.00;47.30
11597;DHT22;5854;48.072;16.286;2023-03-19T05:16:08;5.10;47.50
11597;DHT22;5854;48.072;16.286;2023-03-19T05:18:37;5.30;47.70
11597;DHT22;5854;48.072;16.286;2023-03-19T05:21:04;5.00;47.20
11597;DHT22;5854;48.072;16.286;2023-03-19T05:23:31;5.10;47.60
11597;DHT22;5854;48.072;16.286;2023-03-19T05:25:59;5.30;47.60
11597;DHT22;5854;48.072;16.286;2023-03-19T05:28:26;5.00;47.40
11597;DHT22;5854;48.072;16.286;2023-03-19T05:30:54;5.00;47.80
11597;DHT22;5854;48.072;16.286;2023-03-19T05:33:22;4.90;47.90
11597;DHT22;5854;48.072;16.286;2023-03-19T05:35:50;4.90;48.20
11597;DHT22;5854;48.072;16.286;2023-03-19T05:38:18;5.00;48.20
11597;DHT22;5854;48.072;16.286;2023-03-19T05:40:45;5.10;48.00
11597;DHT22;5854;48.072;16.286;2023-03-19T05:43:12;4.90;48.40
11597;DHT22;5854;48.072;16.286;2023-03-19T05:45:39;5.00;48.10
11597;DHT22;5854;48.072;16.286;2023-03-19T05:48:08;5.00;48.30
11597;DHT22;5854;48.072;16.286;2023-03-19T05:50:35;5.20;47.50
11597;DHT22;5854;48.072;16.286;2023-03-19T05:53:04;5.10;48.80
11597;DHT22;5854;48.072;16.286;2023-03-19T05:55:31;5.10;48.80
11597;DHT22;5854;48.072;16.286;2023-03-19T05:57:58;5.00;48.90
11597;DHT22;5854;48.072;16.286;2023-03-19T06:00:26;5.00;49.30
11597;DHT22;5854;48.072;16.286;2023-03-19T06:02:53;5.00;49.90
11597;DHT22;5854;48.072;16.286;2023-03-19T06:05:20;5.10;49.10
11597;DHT22;5854;48.072;16.286;2023-03-19T06:07:47;5.30;49.30
11597;DHT22;5854;48.072;16.286;2023-03-19T06:10:16;5.30;49.20
11597;DHT22;5854;48.072;16.286;2023-03-19T06:12:43;5.40;49.40
11597;DHT22;5854;48.072;16.286;2023-03-19T06:15:11;5.60;47.20
11597;DHT22;5854;48.072;16.286;2023-03-19T06:17:38;5.70;47.60
11597;DHT22;5854;48.072;16.286;2023-03-19T06:20:05;5.70;48.50
11597;DHT22;5854;48.072;16.286;2023-03-19T06:22:33;5.90;47.40
11597;DHT22;5854;48.072;16.286;2023-03-19T06:25:00;6.00;49.60
11597;DHT22;5854;48.072;16.286;2023-03-19T06:27:29;5.80;50.00
11597;DHT22;5854;48.072;16.286;2023-03-19T06:29:56;5.90;49.40
11597;DHT22;5854;48.072;16.286;2023-03-19T06:32:23;6.20;47.60
11597;DHT22;5854;48.072;16.286;2023-03-19T06:34:50;6.70;49.20
11597;DHT22;5854;48.072;16.286;2023-03-19T06:37:17;7.10;50.50
11597;DHT22;5854;48.072;16.286;2023-03-19T06:39:44;7.50;46.90
11597;DHT22;5854;48.072;16.286;2023-03-19T06:42:11;7.40;47.30
11597;DHT22;5854;48.072;16.286;2023-03-19T06:44:39;7.20;45.70
11597;DHT22;5854;48.072;16.286;2023-03-19T06:47:07;7.00;48.20
11597;DHT22;5854;48.072;16.286;2023-03-19T06:49:34;7.00;45.70
11597;DHT22;5854;48.072;16.286;2023-03-19T06:52:02;7.20;44.50
11597;DHT22;5854;48.072;16.286;2023-03-19T06:54:30;7.40;46.20
11597;DHT22;5854;48.072;16.286;2023-03-19T06:56:57;8.10;43.00
11597;DHT22;5854;48.072;16.286;2023-03-19T06:59:25;8.10;43.30
11597;DHT22;5854;48.072;16.286;2023-03-19T07:01:53;8.20;44.40
11597;DHT22;5854;48.072;16.286;2023-03-19T07:04:21;8.40;44.20
11597;DHT22;5854;48.072;16.286;2023-03-19T07:06:48;8.50;44.00
11597;DHT22;5854;48.072;16.286;2023-03-19T07:09:15;8.50;44.10
11597;DHT22;5854;48.072;16.286;2023-03-19T07:11:42;8.30;45.40
11597;DHT22;5854;48.072;16.286;2023-03-19T07:14:09;8.20;44.20
11597;DHT22;5854;48.072;16.286;2023-03-19T07:16:36;7.80;44.70
11597;DHT22;5854;48.072;16.286;2023-03-19T07:19:08;7.60;45.70
11597;DHT22;5854;48.072;16.286;2023-03-19T07:21:36;7.60;46.90
11597;DHT22;5854;48.072;16.286;2023-03-19T07:24:03;7.50;46.90
11597;DHT22;5854;48.072;16.286;2023-03-19T07:26:31;7.30;48.80
11597;DHT22;5854;48.072;16.286;2023-03-19T07:28:58;7.70;47.80
11597;DHT22;5854;48.072;16.286;2023-03-19T07:31:25;8.00;46.90
11597;DHT22;5854;48.072;16.286;2023-03-19T07:33:52;8.90;43.80
11597;DHT22;5854;48.072;16.286;2023-03-19T07:36:20;9.80;43.40
11597;DHT22;5854;48.072;16.286;2023-03-19T07:38:48;10.00;42.50
11597;DHT22;5854;48.072;16.286;2023-03-19T07:41:15;10.20;41.70
11597;DHT22;5854;48.072;16.286;2023-03-19T07:43:42;10.50;40.40
11597;DHT22;5854;48.072;16.286;2023-03-19T07:46:10;10.50;42.70
11597;DHT22;5854;48.072;16.286;2023-03-19T07:48:37;10.20;41.90
11597;DHT22;5854;48.072;16.286;2023-03-19T07:51:04;9.90;39.90
11597;DHT22;5854;48.072;16.286;2023-03-19T07:53:35;9.70;40.20
11597;DHT22;5854;48.072;16.286;2023-03-19T07:56:02;9.40;40.60
11597;DHT22;5854;48.072;16.286;2023-03-19T07:58:29;9.00;45.30
11597;DHT22;5854;48.072;16.286;2023-03-19T08:00:56;8.80;40.20
11597;DHT22;5854;48.072;16.286;2023-03-19T08:03:23;8.60;45.40
11597;DHT22;5854;48.072;16.286;2023-03-19T08:05:51;8.80;46.10
11597;DHT22;5854;48.072;16.286;2023-03-19T08:08:18;8.80;45.60
11597;DHT22;5854;48.072;16.286;2023-03-19T08:10:46;8.50;46.40
11597;DHT22;5854;48.072;16.286;2023-03-19T08:13:15;8.70;46.60
11597;DHT22;5854;48.072;16.286;2023-03-19T08:15:42;8.80;46.10
11597;DHT22;5854;48.072;16.286;2023-03-19T08:18:09;8.90;45.90
11597;DHT22;5854;48.072;16.286;2023-03-19T08:20:36;9.00;43.50
11597;DHT22;5854;48.072;16.286;2023-03-19T08:23:03;8.90;45.30
11597;DHT22;5854;48.072;16.286;2023-03-19T08:25:31;9.10;45.50
11597;DHT22;5854;48.072;16.286;2023-03-19T08:28:00;9.00;43.60
11597;DHT22;5854;48.072;16.286;2023-03-19T08:30:27;8.80;45.70
11597;DHT22;5854;48.072;16.286;2023-03-19T08:32:54;8.90;45.60
11597;DHT22;5854;48.072;16.286;2023-03-19T08:35:21;8.90;42.30
11597;DHT22;5854;48.072;16.286;2023-03-19T08:37:51;9.00;45.80
11597;DHT22;5854;48.072;16.286;2023-03-19T08:40:19;9.30;44.60
11597;DHT22;5854;48.072;16.286;2023-03-19T08:42:46;9.40;44.60
11597;DHT22;5854;48.072;16.286;2023-03-19T08:45:15;9.40;44.10
11597;DHT22;5854;48.072;16.286;2023-03-19T08:47:43;9.40;44.20
11597;DHT22;5854;48.072;16.286;2023-03-19T08:50:11;9.20;45.50
11597;DHT22;5854;48.072;16.286;2023-03-19T08:52:38;9.20;43.90
11597;DHT22;5854;48.072;16.286;2023-03-19T08:55:06;9.30;44.90
11597;DHT22;5854;48.072;16.286;2023-03-19T08:57:34;9.20;44.70
11597;DHT22;5854;48.072;16.286;2023-03-19T09:00:02;9.20;45.70
11597;DHT22;5854;48.072;16.286;2023-03-19T09:02:32;9.20;42.10
11597;DHT22;5854;48.072;16.286;2023-03-19T09:04:59;9.20;43.90
11597;DHT22;5854;48.072;16.286;2023-03-19T09:07:26;9.30;45.50
11597;DHT22;5854;48.072;16.286;2023-03-19T09:09:53;9.30;44.60
11597;DHT22;5854;48.072;16.286;2023-03-19T09:12:21;9.50;45.30
11597;DHT22;5854;48.072;16.286;2023-03-19T09:14:47;9.60;42.50
11597;DHT22;5854;48.072;16.286;2023-03-19T09:17:15;9.70;42.60
11597;DHT22;5854;48.072;16.286;2023-03-19T09:19:44;9.80;40.20
11597;DHT22;5854;48.072;16.286;2023-03-19T09:22:12;9.70;42.20
11597;DHT22;5854;48.072;16.286;2023-03-19T09:24:40;9.70;43.20
11597;DHT22;5854;48.072;16.286;2023-03-19T09:27:07;9.80;43.60
11597;DHT22;5854;48.072;16.286;2023-03-19T09:29:35;9.70;43.90
11597;DHT22;5854;48.072;16.286;2023-03-19T09:32:02;9.70;42.90
11597;DHT22;5854;48.072;16.286;2023-03-19T09:34:30;9.70;41.70
11597;DHT22;5854;48.072;16.286;2023-03-19T09:36:58;9.70;43.50
11597;DHT22;5854;48.072;16.286;2023-03-19T09:39:26;9.70;42.90
11597;DHT22;5854;48.072;16.286;2023-03-19T09:42:04;9.80;43.60
11597;DHT22;5854;48.072;16.286;2023-03-19T09:44:40;10.00;42.50
11597;DHT22;5854;48.072;16.286;2023-03-19T09:47:24;10.10;43.40
11597;DHT22;5854;48.072;16.286;2023-03-19T09:49:54;10.40;44.40
11597;DHT22;5854;48.072;16.286;2023-03-19T09:52:33;10.30;41.80
11597;DHT22;5854;48.072;16.286;2023-03-19T09:55:08;10.30;44.40
11597;DHT22;5854;48.072;16.286;2023-03-19T09:57:40;10.20;45.10
11597;DHT22;5854;48.072;16.286;2023-03-19T10:00:19;10.20;41.10
11597;DHT22;5854;48.072;16.286;2023-03-19T10:02:52;10.30;44.50
11597;DHT22;5854;48.072;16.286;2023-03-19T10:05:26;10.30;44.80
11597;DHT22;5854;48.072;16.286;2023-03-19T10:08:18;10.50;43.50
11597;DHT22;5854;48.072;16.286;2023-03-19T10:11:19;10.40;38.40
11597;DHT22;5854;48.072;16.286;2023-03-19T10:13:58;10.30;44.30
11597;DHT22;5854;48.072;16.286;2023-03-19T10:16:33;10.40;42.70
11597;DHT22;5854;48.072;16.286;2023-03-19T10:19:03;10.50;42.90
11597;DHT22;5854;48.072;16.286;2023-03-19T10:21:35;10.50;43.40
11597;DHT22;5854;48.072;16.286;2023-03-19T10:24:11;10.60;42.80
11597;DHT22;5854;48.072;16.286;2023-03-19T10:26:40;10.70;42.40
11597;DHT22;5854;48.072;16.286;2023-03-19T10:29:10;10.60;43.60
11597;DHT22;5854;48.072;16.286;2023-03-19T10:31:42;10.80;44.10
11597;DHT22;5854;48.072;16.286;2023-03-19T10:34:23;11.00;44.40
11597;DHT22;5854;48.072;16.286;2023-03-19T10:37:01;11.10;42.10
11597;DHT22;5854;48.072;16.286;2023-03-19T10:39:35;10.90;42.40
11597;DHT22;5854;48.072;16.286;2023-03-19T10:42:18;10.90;40.60
11597;DHT22;5854;48.072;16.286;2023-03-19T10:44:58;11.00;43.30
11597;DHT22;5854;48.072;16.286;2023-03-19T10:47:36;10.90;43.20
11597;DHT22;5854;48.072;16.286;2023-03-19T10:50:05;11.00;41.70
11597;DHT22;5854;48.072;16.286;2023-03-19T10:52:34;11.00;42.10
11597;DHT22;5854;48.072;16.286;2023-03-19T10:55:11;11.00;42.50
11597;DHT22;5854;48.072;16.286;2023-03-19T10:57:41;11.10;42.10
11597;DHT22;5854;48.072;16.286;2023-03-19T11:00:17;11.10;42.30
11597;DHT22;5854;48.072;16.286;2023-03-19T11:02:49;11.10;42.60
11597;DHT22;5854;48.072;16.286;2023-03-19T11:05:26;11.00;42.90
11597;DHT22;5854;48.072;16.286;2023-03-19T11:07:56;11.30;44.40
11597;DHT22;5854;48.072;16.286;2023-03-19T11:10:26;11.40;42.20
11597;DHT22;5854;48.072;16.286;2023-03-19T11:12:56;11.20;41.70
11597;DHT22;5854;48.072;16.286;2023-03-19T11:15:28;11.20;43.00
11597;DHT22;5854;48.072;16.286;2023-03-19T11:18:06;11.20;43.30
11597;DHT22;5854;48.072;16.286;2023-03-19T11:20:40;11.30;42.90
11597;DHT22;5854;48.072;16.286;2023-03-19T11:23:13;11.30;42.10
11597;DHT22;5854;48.072;16.286;2023-03-19T11:25:46;11.30;41.90
11597;DHT22;5854;48.072;16.286;2023-03-19T11:28:18;11.30;42.00
11597;DHT22;5854;48.072;16.286;2023-03-19T11:30:53;11.30;41.00
11597;DHT22;5854;48.072;16.286;2023-03-19T11:33:53;11.40;42.30
11597;DHT22;5854;48.072;16.286;2023-03-19T11:36:27;11.50;41.50
11597;DHT22;5854;48.072;16.286;2023-03-19T11:39:14;11.40;42.60
11597;DHT22;5854;48.072;16.286;2023-03-19T11:42:00;11.60;41.70
11597;DHT22;5854;48.072;16.286;2023-03-19T11:44:51;11.60;40.60
11597;DHT22;5854;48.072;16.286;2023-03-19T11:47:29;11.40;40.00
11597;DHT22;5854;48.072;16.286;2023-03-19T11:50:12;11.40;42.50
11597;DHT22;5854;48.072;16.286;2023-03-19T11:52:59;11.60;41.20
11597;DHT22;5854;48.072;16.286;2023-03-19T11:55:36;11.60;40.90
11597;DHT22;5854;48.072;16.286;2023-03-19T11:58:20;11.60;39.30
11597;DHT22;5854;48.072;16.286;2023-03-19T12:00:56;11.60;42.10
11597;DHT22;5854;48.072;16.286;2023-03-19T12:03:51;11.70;40.30
11597;DHT22;5854;48.072;16.286;2023-03-19T12:06:35;11.60;40.80
11597;DHT22;5854;48.072;16.286;2023-03-19T12:09:14;11.70;41.00
11597;DHT22;5854;48.072;16.286;2023-03-19T12:11:51;11.80;40.80
11597;DHT22;5854;48.072;16.286;2023-03-19T12:14:29;11.90;39.70
11597;DHT22;5854;48.072;16.286;2023-03-19T12:17:13;11.90;40.50
11597;DHT22;5854;48.072;16.286;2023-03-19T12:19:56;11.90;40.00
11597;DHT22;5854;48.072;16.286;2023-03-19T12:22:38;12.00;40.30
11597;DHT22;5854;48.072;16.286;2023-03-19T12:25:21;12.10;39.20
11597;DHT22;5854;48.072;16.286;2023-03-19T12:27:57;12.20;38.90
11597;DHT22;5854;48.072;16.286;2023-03-19T12:30:35;12.10;39.10
11597;DHT22;5854;48.072;16.286;2023-03-19T12:33:21;12.10;39.50
11597;DHT22;5854;48.072;16.286;2023-03-19T12:35:58;12.30;39.10
11597;DHT22;5854;48.072;16.286;2023-03-19T12:38:29;12.30;39.70
11597;DHT22;5854;48.072;16.286;2023-03-19T12:41:03;12.30;38.50
11597;DHT22;5854;48.072;16.286;2023-03-19T12:43:37;12.40;39.10
11597;DHT22;5854;48.072;16.286;2023-03-19T12:46:13;12.60;39.00
11597;DHT22;5854;48.072;16.286;2023-03-19T12:48:47;12.50;39.20
11597;DHT22;5854;48.072;16.286;2023-03-19T12:51:20;12.50;38.00
11597;DHT22;5854;48.072;16.286;2023-03-19T12:53:54;12.40;38.20
11597;DHT22;5854;48.072;16.286;2023-03-19T12:56:28;12.40;38.50
11597;DHT22;5854;48.072;16.286;2023-03-19T12:59:01;12.30;39.30
11597;DHT22;5854;48.072;16.286;2023-03-19T13:01:37;12.40;38.70
11597;DHT22;5854;48.072;16.286;2023-03-19T13:04:10;12.50;39.00
11597;DHT22;5854;48.072;16.286;2023-03-19T13:06:43;12.60;38.00
11597;DHT22;5854;48.072;16.286;2023-03-19T13:09:20;12.50;38.00
11597;DHT22;5854;48.072;16.286;2023-03-19T13:11:56;12.50;38.50
11597;DHT22;5854;48.072;16.286;2023-03-19T13:14:31;12.60;38.20
11597;DHT22;5854;48.072;16.286;2023-03-19T13:17:08;12.70;38.10
11597;DHT22;5854;48.072;16.286;2023-03-19T13:19:44;12.70;38.00
11597;DHT22;5854;48.072;16.286;2023-03-19T13:22:15;12.80;38.60
11597;DHT22;5854;48.072;16.286;2023-03-19T13:24:45;12.70;37.30
11597;DHT22;5854;48.072;16.286;2023-03-19T13:27:18;12.70;38.60
11597;DHT22;5854;48.072;16.286;2023-03-19T13:30:05;12.80;38.50
11597;DHT22;5854;48.072;16.286;2023-03-19T13:32:42;12.80;38.20
11597;DHT22;5854;48.072;16.286;2023-03-19T13:35:36;12.80;38.00
11597;DHT22;5854;48.072;16.286;2023-03-19T13:38:14;12.80;38.00
11597;DHT22;5854;48.072;16.286;2023-03-19T13:40:46;12.80;39.60
11597;DHT22;5854;48.072;16.286;2023-03-19T13:43:51;13.00;39.60
11597;DHT22;5854;48.072;16.286;2023-03-19T13:46:39;13.00;38.30
11597;DHT22;5854;48.072;16.286;2023-03-19T13:49:26;13.10;39.60
11597;DHT22;5854;48.072;16.286;2023-03-19T13:51:57;13.10;38.40
11597;DHT22;5854;48.072;16.286;2023-03-19T13:54:35;13.10;39.10
11597;DHT22;5854;48.072;16.286;2023-03-19T13:57:20;13.10;38.50
11597;DHT22;5854;48.072;16.286;2023-03-19T14:03:23;13.20;39.00
11597;DHT22;5854;48.072;16.286;2023-03-19T14:05:54;13.20;38.60
11597;DHT22;5854;48.072;16.286;2023-03-19T14:08:24;13.10;37.90
11597;DHT22;5854;48.072;16.286;2023-03-19T14:10:54;13.00;38.50
11597;DHT22;5854;48.072;16.286;2023-03-19T14:13:32;13.10;37.90
11597;DHT22;5854;48.072;16.286;2023-03-19T14:16:06;13.00;37.70
11597;DHT22;5854;48.072;16.286;2023-03-19T14:18:39;12.90;39.10
11597;DHT22;5854;48.072;16.286;2023-03-19T14:21:13;13.00;39.90
11597;DHT22;5854;48.072;16.286;2023-03-19T14:23:51;13.20;39.60
11597;DHT22;5854;48.072;16.286;2023-03-19T14:26:21;13.30;39.80
11597;DHT22;5854;48.072;16.286;2023-03-19T14:28:56;13.30;37.80
11597;DHT22;5854;48.072;16.286;2023-03-19T14:31:32;13.20;37.70
11597;DHT22;5854;48.072;16.286;2023-03-19T14:34:05;13.10;38.30
11597;DHT22;5854;48.072;16.286;2023-03-19T14:36:44;13.10;38.20
11597;DHT22;5854;48.072;16.286;2023-03-19T14:39:19;13.20;37.70
11597;DHT22;5854;48.072;16.286;2023-03-19T14:41:49;13.30;38.80
11597;DHT22;5854;48.072;16.286;2023-03-19T14:48:16;13.40;38.70
11597;DHT22;5854;48.072;16.286;2023-03-19T14:51:14;13.50;37.90
11597;DHT22;5854;48.072;16.286;2023-03-19T14:53:51;13.30;38.00
11597;DHT22;5854;48.072;16.286;2023-03-19T14:56:23;13.40;37.40
11597;DHT22;5854;48.072;16.286;2023-03-19T14:58:53;13.20;37.90
11597;DHT22;5854;48.072;16.286;2023-03-19T15:01:23;13.10;38.60
11597;DHT22;5854;48.072;16.286;2023-03-19T15:03:53;13.20;38.60
11597;DHT22;5854;48.072;16.286;2023-03-19T15:06:21;13.20;38.60
11597;DHT22;5854;48.072;16.286;2023-03-19T15:08:51;13.30;39.00
11597;DHT22;5854;48.072;16.286;2023-03-19T15:11:41;13.50;38.60
11597;DHT22;5854;48.072;16.286;2023-03-19T15:14:35;13.80;39.50
11597;DHT22;5854;48.072;16.286;2023-03-19T15:17:16;13.90;38.50
11597;DHT22;5854;48.072;16.286;2023-03-19T15:19:46;13.90;38.70
11597;DHT22;5854;48.072;16.286;2023-03-19T15:22:16;13.80;38.50
11597;DHT22;5854;48.072;16.286;2023-03-19T15:24:47;13.60;39.10
11597;DHT22;5854;48.072;16.286;2023-03-19T15:27:18;13.40;38.50
11597;DHT22;5854;48.072;16.286;2023-03-19T15:30:19;13.30;39.00
11597;DHT22;5854;48.072;16.286;2023-03-19T15:32:46;13.20;40.50
11597;DHT22;5854;48.072;16.286;2023-03-19T15:35:14;13.10;39.90
11597;DHT22;5854;48.072;16.286;2023-03-19T15:37:43;13.10;40.00
11597;DHT22;5854;48.072;16.286;2023-03-19T15:40:16;13.00;39.90
11597;DHT22;5854;48.072;16.286;2023-03-19T15:42:46;13.00;39.10
11597;DHT22;5854;48.072;16.286;2023-03-19T15:45:17;12.90;39.50
11597;DHT22;5854;48.072;16.286;2023-03-19T15:47:50;12.90;40.40
11597;DHT22;5854;48.072;16.286;2023-03-19T15:50:22;12.90;40.30
11597;DHT22;5854;48.072;16.286;2023-03-19T15:52:53;12.90;41.10
11597;DHT22;5854;48.072;16.286;2023-03-19T15:55:25;12.90;41.40
11597;DHT22;5854;48.072;16.286;2023-03-19T15:57:53;12.80;41.20
11597;DHT22;5854;48.072;16.286;2023-03-19T16:00:23;12.80;42.30
11597;DHT22;5854;48.072;16.286;2023-03-19T16:02:51;12.80;43.70
11597;DHT22;5854;48.072;16.286;2023-03-19T16:05:23;12.80;43.20
11597;DHT22;5854;48.072;16.286;2023-03-19T16:07:59;12.70;44.10
11597;DHT22;5854;48.072;16.286;2023-03-19T16:10:32;12.60;45.90